Wesel-Römerwardt Airfield

EDLX · Nordrhein-Westfalen, Deutschland

METAR-Geschichte EDLX · Wesel-Römerwardt Airport

Unten siehst du die METARs der letzten paar Tage. Wähle ein Jahr, um ältere METARs ab dem Jahr 2007 zu durchsuchen.

29. November 2022

Uhrzeit Code Wetter Temp. Sichtweite Wolkendecke Wind METAR/SPECI
08:20
L
8 °C 1,5 km - 260° 260° 5 kt METAR EDLV 290720Z 26005KT 1500 BR VV/// 08/07 Q1017
07:50
L
8 °C 900 m - 270° 270° 3 kt METAR EDLV 290650Z 27003KT 0900 R27/1100D FG VV/// 08/07 Q1017
07:20
L
8 °C 1,7 km 400 ft 240° 240° 3 kt METAR EDLV 290620Z 24003KT 1700 BR FEW002 OVC004 08/07 Q1016
06:50
L
8 °C 2,9 km 400 ft Var Var 2 kt METAR EDLV 290550Z VRB02KT 2900 BR OVC004 08/08 Q1016
06:20
L
8 °C 4,9 km 400 ft Var 000° 0 kt METAR EDLV 290520Z 00000KT 4900 BR OVC004 08/08 Q1016
05:50
L
8 °C 3 km 400 ft Var Var 2 kt METAR EDLV 290450Z VRB02KT 3000 BR OVC004 08/08 Q1015
05:20
L
8 °C 2,7 km 400 ft Var 000° 0 kt METAR EDLV 290420Z 00000KT 2700 BR OVC004 08/08 Q1015
04:50
L
8 °C 2,5 km 400 ft Var 000° 0 kt METAR EDLV 290350Z AUTO 00000KT 2500 // OVC004/// 08/08 Q1015
04:20
L
8 °C 2,8 km 400 ft Var 000° 0 kt METAR EDLV 290320Z AUTO 00000KT 2800 // OVC004/// 08/08 Q1015
03:50
L
8 °C 2,8 km 300 ft Var 000° 0 kt METAR EDLV 290250Z AUTO 00000KT 2800 // OVC003/// 08/08 Q1014
03:20
L
8 °C 2,3 km 300 ft Var Var 1 kt METAR EDLV 290220Z AUTO VRB01KT 2300 // OVC003/// 08/08 Q1014
02:50
L
8 °C 2,1 km 200 ft 310° 310° 1 kt METAR EDLV 290150Z AUTO 31001KT 2100 // OVC002/// 08/08 Q1014
02:20
L
8 °C 2,6 km 200 ft 280° 280° 1 kt METAR EDLV 290120Z AUTO 28001KT 2600 // OVC002/// 08/08 Q1014
01:50
L
8 °C 2,8 km 400 ft Var 000° 0 kt METAR EDLV 290050Z AUTO 00000KT 2800 // OVC004/// 08/08 Q1014
01:20
I
8 °C 3,4 km 700 ft Var Var 2 kt METAR EDLV 290020Z AUTO VRB02KT 3400 // SCT004/// OVC007/// 08/08 Q1014
00:50
L
8 °C 3,7 km 400 ft 320° 320° 3 kt METAR EDLV 282350Z AUTO 32003KT 280V350 3700 // OVC004/// 08/08 Q1014
00:20
I
8 °C 3,4 km 500 ft Var Var 2 kt METAR EDLV 282320Z AUTO VRB02KT 3400 // BKN005/// BKN008/// OVC031/// 08/08 Q1014

28. November 2022

Uhrzeit Code Wetter Temp. Sichtweite Wolkendecke Wind METAR/SPECI
23:50
I
8 °C 3,7 km 2.500 ft Var Var 2 kt METAR EDLV 282250Z VRB02KT 3700 BR SCT009 BKN025 OVC033 08/08 Q1013
23:20
I
9 °C 4,2 km 1.200 ft 290° 290° 3 kt METAR EDLV 282220Z 29003KT 4200 BR SCT010 BKN012 09/08 Q1013
22:50
I
9 °C 4,5 km 1.200 ft 270° 270° 2 kt METAR EDLV 282150Z 27002KT 4500 BR BKN012 09/08 Q1013
22:20
I
9 °C 4,7 km 1.200 ft 260° 260° 2 kt METAR EDLV 282120Z 26002KT 4700 BR BKN012 OVC020 09/08 Q1013
21:50
I
9 °C 4,7 km 1.100 ft 280° 280° 3 kt METAR EDLV 282050Z 28003KT 4700 BR FEW007 BKN011 09/08 Q1013
21:20
I
9 °C 4 km 800 ft 260° 260° 5 kt METAR EDLV 282020Z 26005KT 4000 BR FEW005 OVC008 09/09 Q1013
20:50
I
9 °C 4,6 km 600 ft 260° 260° 5 kt METAR EDLV 281950Z 26005KT 4600 BR OVC006 09/09 Q1012
20:20
I
9 °C 4,1 km 500 ft 260° 260° 6 kt METAR EDLV 281920Z 26006KT 4100 -RA BR OVC005 09/09 Q1012
19:50
L
9 °C 3,1 km 400 ft 250° 250° 5 kt METAR EDLV 281850Z 25005KT 3100 RA BR OVC004 09/09 Q1012
19:20
L
9 °C 2,7 km 400 ft 240° 240° 5 kt METAR EDLV 281820Z 24005KT 2700 -RA BKN004 OVC010 09/09 Q1012
18:50
L
9 °C 2,9 km 400 ft 230° 230° 5 kt METAR EDLV 281750Z 23005KT 2900 -RA OVC004 09/09 Q1012
18:20
L
9 °C 2,7 km 200 ft 220° 220° 3 kt METAR EDLV 281720Z 22003KT 180V250 2700 -RA BR BKN002 OVC009 09/09 Q1012
17:50
L
9 °C 2,5 km 200 ft 190° 190° 3 kt METAR EDLV 281650Z 19003KT 2500 -RA BR OVC002 09/09 Q1011
17:20
L
9 °C 2,4 km 300 ft 210° 210° 2 kt METAR EDLV 281620Z 21002KT 2400 DZ BR OVC003 09/09 Q1011
16:50
L
9 °C 2,3 km 200 ft 230° 230° 3 kt METAR EDLV 281550Z 23003KT 2300 DZ BR OVC002 09/09 Q1011
16:20
L
9 °C 1,9 km 200 ft 220° 220° 3 kt METAR EDLV 281520Z 22003KT 1900 DZ OVC002 09/09 Q1011
15:50
L
9 °C 3,8 km 200 ft Var Var 2 kt METAR EDLV 281450Z VRB02KT 3800 BR OVC002 09/09 Q1011
15:20
L
9 °C 4,1 km 200 ft 180° 180° 3 kt METAR EDLV 281420Z 18003KT 150V230 4100 BR OVC002 09/09 Q1010
14:50
L
9 °C 2,6 km 200 ft 190° 190° 3 kt METAR EDLV 281350Z 19003KT 150V220 2600 -DZ BR OVC002 09/08 Q1010
14:20
L
9 °C 6 km 200 ft 180° 180° 3 kt METAR EDLV 281320Z 18003KT 6000 -DZ OVC002 09/08 Q1010
13:50
L
9 °C 6 km 300 ft 180° 180° 4 kt METAR EDLV 281250Z 18004KT 6000 -RA OVC003 09/08 Q1010
13:20
L
8 °C 3,3 km 300 ft 190° 190° 5 kt METAR EDLV 281220Z 19005KT 3300 -RA BR OVC003 08/08 Q1010
12:50
L
8 °C 8 km 400 ft 190° 190° 4 kt METAR EDLV 281150Z 19004KT 8000 -DZ OVC004 08/08 Q1010
12:20
L
8 °C 7 km 400 ft 180° 180° 4 kt METAR EDLV 281120Z 18004KT 150V210 7000 -RA OVC004 08/08 Q1010
11:50
L
8 °C 6 km 400 ft 180° 180° 4 kt METAR EDLV 281050Z 18004KT 6000 -RA OVC004 08/08 Q1010
11:20
L
8 °C 3,9 km 300 ft 170° 170° 5 kt METAR EDLV 281020Z 17005KT 3900 -RA BR BKN003 OVC005 08/07 Q1010
10:50
L
8 °C 4,6 km 300 ft 170° 170° 5 kt METAR EDLV 280950Z 17005KT 4600 -RA BR OVC003 08/07 Q1010
10:20
L
8 °C 5 km 300 ft 170° 170° 5 kt METAR EDLV 280920Z 17005KT 140V200 5000 -RA OVC003 08/07 Q1010
09:50
L
8 °C 3,5 km 400 ft 180° 180° 6 kt METAR EDLV 280850Z 18006KT 3500 -RA BR OVC004 08/07 Q1010
09:20
L
8 °C 6 km 400 ft 170° 170° 6 kt METAR EDLV 280820Z 17006KT 6000 -DZ BKN004 OVC011 08/07 Q1010
08:50
L
7 °C 4 km 300 ft 170° 170° 6 kt METAR EDLV 280750Z 17006KT 140V200 4000 -RA BR BKN003 OVC011 07/07 Q1010
08:20
L
7 °C 3,8 km 300 ft 160° 160° 6 kt METAR EDLV 280720Z 16006KT 3800 -RA BR OVC003 07/07 Q1010
07:50
L
8 °C 4 km 400 ft 160° 160° 6 kt METAR EDLV 280650Z 16006KT 4000 -DZ BR OVC004 08/07 Q1009
07:20
L
8 °C 7 km 400 ft 150° 150° 7 kt METAR EDLV 280620Z 15007KT 7000 -RA BKN004 OVC008 08/07 Q1009
06:50
M
8 °C 5 km 1.100 ft 150° 150° 7 kt METAR EDLV 280550Z 15007KT 5000 -RA SCT006 OVC011 08/07 Q1009
06:20
M
8 °C 6 km 1.400 ft 160° 160° 7 kt METAR EDLV 280520Z 16007KT 6000 -RA FEW008 OVC014 08/07 Q1009
05:50
M
7 °C 5 km 1.600 ft 150° 150° 6 kt METAR EDLV 280450Z 15006KT 5000 -RA OVC016 07/07 Q1009
05:20
M
7 °C 7 km 1.800 ft 150° 150° 7 kt METAR EDLV 280420Z 15007KT 7000 -RA OVC018 07/07 Q1009
04:50
M
7 °C 8 km 2.100 ft 160° 160° 6 kt METAR EDLV 280350Z 16006KT 130V190 8000 -RA OVC021 07/07 Q1009

27. November 2022

Uhrzeit Code Wetter Temp. Sichtweite Wolkendecke Wind METAR/SPECI
23:50
M
8 °C 10 km+ 2.300 ft 140° 140° 10 kt METAR EDLV 272250Z 14010KT 9999 OVC023 08/05 Q1011
23:20
M
7 °C 10 km+ 2.400 ft 140° 140° 9 kt METAR EDLV 272220Z 14009KT 9999 OVC024 07/05 Q1011
22:20
M
7 °C 10 km+ 2.900 ft 140° 140° 9 kt METAR EDLV 272120Z 14009KT 9999 OVC029 07/05 Q1012
21:50
M
7 °C 8 km 2.800 ft 140° 140° 8 kt METAR EDLV 272050Z 14008KT 110V170 8000 -RA OVC028 07/05 Q1012
21:20
V
7 °C 10 km+ 3.000 ft 150° 150° 8 kt METAR EDLV 272020Z 15008KT 9999 -RA BKN030 OVC045 07/05 Q1013
20:50
V
7 °C 10 km+ 4.600 ft 150° 150° 9 kt METAR EDLV 271950Z 15009KT 9999 -RA OVC046 07/05 Q1013
20:20
V
7 °C 10 km+ 4.100 ft 140° 140° 10 kt METAR EDLV 271920Z 14010KT 110V170 9999 -RA BKN041 OVC049 07/05 Q1013
19:50
V
8 °C 10 km+ 3.700 ft 140° 140° 8 kt METAR EDLV 271850Z 14008KT 9999 -RA OVC037 08/05 Q1014
19:20
V
8 °C 10 km+ 3.600 ft 140° 140° 10 kt METAR EDLV 271820Z 14010KT 9999 -RA OVC036 08/05 Q1014
18:50
V
8 °C 10 km+ 4.000 ft 140° 140° 9 kt METAR EDLV 271750Z 14009KT 9999 -RA OVC040 08/04 Q1014
18:20
V
8 °C 10 km+ 3.900 ft 140° 140° 8 kt METAR EDLV 271720Z 14008KT 9999 OVC039 08/04 Q1015
17:50
V
8 °C 10 km+ 4.000 ft 150° 150° 8 kt METAR EDLV 271650Z 15008KT 9999 -RA OVC040 08/05 Q1015
17:20
V
8 °C 10 km+ 4.400 ft 140° 140° 7 kt METAR EDLV 271620Z 14007KT 9999 -RA BKN044 08/05 Q1016
16:50
V
8 °C 10 km+ 4.500 ft 150° 150° 8 kt METAR EDLV 271550Z 15008KT 9999 -RA BKN045 08/05 Q1016
16:20
V
8 °C 10 km+ 4.800 ft 140° 140° 9 kt METAR EDLV 271520Z 14009KT 9999 BKN048 08/05 Q1016
15:50
V
8 °C 10 km+ - 120° 120° 7 kt METAR EDLV 271450Z 12007KT 9999 -RA NSC 08/05 Q1016
15:20
V
8 °C 10 km+ 4.500 ft 120° 120° 7 kt METAR EDLV 271420Z 12007KT 9999 -RA BKN045 08/05 Q1017
14:50
V
8 °C 10 km+ 4.600 ft 150° 150° 6 kt METAR EDLV 271350Z 15006KT 120V180 9999 -RA BKN046 08/05 Q1018
14:20
V
8 °C 10 km+ 4.900 ft 140° 140° 8 kt METAR EDLV 271320Z 14008KT 9999 OVC049 08/05 Q1018
13:50
V
8 °C 10 km+ - 130° 130° 7 kt METAR EDLV 271250Z 13007KT CAVOK 08/05 Q1018
13:20
V
7 °C 10 km+ - 150° 150° 5 kt METAR EDLV 271220Z 15005KT CAVOK 07/05 Q1019
12:50
V
7 °C 10 km+ - 150° 150° 6 kt METAR EDLV 271150Z 15006KT 9999 -RA NSC 07/05 Q1019
12:20
V
7 °C 10 km+ - 150° 150° 7 kt METAR EDLV 271120Z 15007KT 9999 -RA NSC 07/05 Q1020
11:50
V
6 °C 10 km+ - 140° 140° 7 kt METAR EDLV 271050Z 14007KT 9999 -RA NSC 06/05 Q1020
11:20
V
6 °C 10 km+ - 140° 140° 9 kt METAR EDLV 271020Z 14009KT 9999 -RA NSC 06/04 Q1020
10:50
V
6 °C 10 km+ - 140° 140° 8 kt METAR EDLV 270950Z 14008KT 9999 -RA NSC 06/04 Q1021
10:20
V
6 °C 9 km - 140° 140° 7 kt METAR EDLV 270920Z 14007KT 9000 -RA NSC 06/04 Q1021
09:50
V
6 °C 10 km+ - 140° 140° 8 kt METAR EDLV 270850Z 14008KT 9999 -RA NSC 06/04 Q1021
09:20
V
6 °C 10 km+ - 140° 140° 8 kt METAR EDLV 270820Z 14008KT CAVOK 06/03 Q1021
08:50
V
6 °C 10 km+ - 140° 140° 7 kt METAR EDLV 270750Z 14007KT CAVOK 06/03 Q1022
08:20
V
6 °C 10 km+ - 150° 150° 7 kt METAR EDLV 270720Z 15007KT CAVOK 06/03 Q1022
07:50
V
6 °C 10 km+ - 150° 150° 7 kt METAR EDLV 270650Z 15007KT CAVOK 06/03 Q1022
07:20
V
6 °C 10 km+ - 150° 150° 9 kt METAR EDLV 270620Z 15009KT CAVOK 06/03 Q1022
06:50
V
5 °C 10 km+ - 150° 150° 8 kt METAR EDLV 270550Z 15008KT CAVOK 05/03 Q1022
06:20
V
6 °C 10 km+ - 160° 160° 9 kt METAR EDLV 270520Z 16009KT CAVOK 06/03 Q1023
05:50
V
6 °C 10 km+ - 150° 150° 10 kt METAR EDLV 270450Z 15010KT CAVOK 06/03 Q1023
05:20
V
5 °C 10 km+ - 150° 150° 10 kt METAR EDLV 270420Z 15010KT CAVOK 05/03 Q1023
04:50
V
5 °C 10 km+ 14.000 ft 140° 140° 11 kt METAR EDLV 270350Z AUTO 14011KT 9999 // FEW120/// BKN140/// OVC170/// 05/03 Q1023
04:20
V
5 °C 10 km+ 14.000 ft 150° 150° 10 kt METAR EDLV 270320Z AUTO 15010KT 9999 // BKN140/// 05/03 Q1023
03:50
V
5 °C 10 km+ 14.000 ft 140° 140° 10 kt METAR EDLV 270250Z AUTO 14010KT 9999 // OVC140/// 05/03 Q1024
03:20
V
5 °C 10 km+ 14.000 ft 140° 140° 10 kt METAR EDLV 270220Z AUTO 14010KT 9999 // BKN140/// 05/03 Q1024
02:50
V
5 °C 10 km+ - 140° 140° 9 kt METAR EDLV 270150Z AUTO 14009KT 9999 // SCT150/// 05/03 Q1025
02:20
V
5 °C 10 km+ 15.000 ft 140° 140° 9 kt METAR EDLV 270120Z AUTO 14009KT 9999 // OVC150/// 05/04 Q1025
01:50
V
5 °C 10 km+ 15.000 ft 150° 150° 7 kt METAR EDLV 270050Z AUTO 15007KT 9999 // BKN150/// 05/03 Q1025
01:20
V
5 °C 10 km+ - 150° 150° 7 kt METAR EDLV 270020Z AUTO 15007KT 9999 // FEW150/// 05/04 Q1025
00:50
V
5 °C 10 km+ 15.000 ft 140° 140° 9 kt METAR EDLV 262350Z AUTO 14009KT 9999 // BKN150/// 05/04 Q1025
00:20
V
5 °C 10 km+ - 140° 140° 7 kt METAR EDLV 262320Z AUTO 14007KT 9999 // NCD 05/03 Q1026

26. November 2022

Uhrzeit Code Wetter Temp. Sichtweite Wolkendecke Wind METAR/SPECI
23:50
V
5 °C 10 km+ - 140° 140° 7 kt METAR EDLV 262250Z 14007KT CAVOK 05/04 Q1026
23:20
V
6 °C 10 km+ - 150° 150° 7 kt METAR EDLV 262220Z 15007KT CAVOK 06/04 Q1026
22:50
V
7 °C 10 km+ - 150° 150° 7 kt METAR EDLV 262150Z 15007KT CAVOK 07/05 Q1027
22:20
V
7 °C 10 km+ - 160° 160° 6 kt METAR EDLV 262120Z 16006KT CAVOK 07/05 Q1028
21:50
V
7 °C 10 km+ - 170° 170° 7 kt METAR EDLV 262050Z 17007KT 150V210 CAVOK 07/05 Q1028
21:20
V
7 °C 10 km+ - 160° 160° 6 kt METAR EDLV 262020Z 16006KT CAVOK 07/05 Q1027
20:50
V
7 °C 10 km+ - 150° 150° 6 kt METAR EDLV 261950Z 15006KT CAVOK 07/06 Q1027
20:20
V
7 °C 10 km+ - 150° 150° 6 kt METAR EDLV 261920Z 15006KT CAVOK 07/06 Q1027
19:50
V
7 °C 10 km+ - 160° 160° 6 kt METAR EDLV 261850Z 16006KT CAVOK 07/06 Q1028
19:20
V
7 °C 10 km+ - 160° 160° 6 kt METAR EDLV 261820Z 16006KT CAVOK 07/06 Q1028
18:50
V
8 °C 10 km+ - 180° 180° 5 kt METAR EDLV 261750Z 18005KT CAVOK 08/06 Q1028
18:20
V
8 °C 10 km+ - 180° 180° 7 kt METAR EDLV 261720Z 18007KT CAVOK 08/06 Q1028
17:50
V
8 °C 10 km+ - 180° 180° 7 kt METAR EDLV 261650Z 18007KT CAVOK 08/07 Q1028
17:20
V
8 °C 10 km+ - 180° 180° 7 kt METAR EDLV 261620Z 18007KT 150V210 CAVOK 08/06 Q1028
16:50
V
9 °C 10 km+ - 170° 170° 7 kt METAR EDLV 261550Z 17007KT CAVOK 09/07 Q1028
16:20
V
10 °C 10 km+ - 180° 180° 6 kt METAR EDLV 261520Z 18006KT CAVOK 10/07 Q1028
15:50
V
10 °C 10 km+ - 170° 170° 6 kt METAR EDLV 261450Z 17006KT 150V210 CAVOK 10/07 Q1028
15:20
V
9 °C 10 km+ - 180° 180° 5 kt METAR EDLV 261420Z 18005KT CAVOK 09/07 Q1028
14:50
V
9 °C 10 km+ - 180° 180° 6 kt METAR EDLV 261350Z 18006KT CAVOK 09/07 Q1028
14:20
V
10 °C 10 km+ - 190° 190° 8 kt METAR EDLV 261320Z 19008KT CAVOK 10/07 Q1029
13:50
V
10 °C 10 km+ - 190° 190° 7 kt METAR EDLV 261250Z 19007KT CAVOK 10/08 Q1029
13:20
V
9 °C 10 km+ - 190° 190° 6 kt METAR EDLV 261220Z 19006KT CAVOK 09/08 Q1029
12:50
V
8 °C 9 km - 180° 180° 6 kt METAR EDLV 261150Z 18006KT 9000 NSC 08/07 Q1029
12:20
V
8 °C 9 km - 180° 180° 6 kt METAR EDLV 261120Z 18006KT 9000 NSC 08/07 Q1029
11:50
V
7 °C 8 km - 190° 190° 6 kt METAR EDLV 261050Z 19006KT 8000 FEW027 07/07 Q1029
11:20
M
7 °C 7 km - 190° 190° 5 kt METAR EDLV 261020Z 19005KT 7000 FEW003 07/06 Q1029
10:50
M
6 °C 5 km - 170° 170° 6 kt METAR EDLV 260950Z 17006KT 5000 BR SCT001 06/06 Q1029

Wir und Dritte verfolgen dein Internetverhalten auf unserer Website mit Cookies. Wenn du fortfährst, gehen wir davon aus, dass du mit unserer Cookie-Richtlinie einverstanden bist.